Pituffik, Greenland

4:14 AM ADT on September 03, 2014 (GMT -0300)
Thule Air Base | Change Station
CLOSE
Current Station
Airport
Location: Pituffik,
Elevation: 253 ft
Nearby Weather Stations

Elev 253 ft 76.53 °N, 68.75 °W | Updated 16 minutes ago

Overcast
Overcast
34 °F
Feels Like 34 °F
N
2
Wind Variable Wind from ENE

Today
High -- | Low -- °F
--% Chance of Precip.
Yesterday
High -- | Low -- °F
Precip. -- in
5:02 AM 10:00 PM
First Quarter, 59% visible
Pressure 29.69 in
Visibility 6.2 miles
Clouds Overcast 5000 ft
Dew Point 32 °F
Humidity 89%
Rainfall 0.00 in
Snow Depth Not available.
UV 0 out of 12
Pollen Not available.
Air Quality Not available.
Flu Activity Not available.
METAR BGTL 030658Z AUTO 06002KT 9999 OVC050 01/00 A2973 RMK AO2 SLP052 T00141002 $

More Conditions Fewer Conditions

Pressure 29.69 in
Visibility 6.2 miles
Clouds Overcast 5000 ft
Dew Point 32 °F
Humidity 89%
Rainfall 0.00 in
Snow Depth Not available.
UV 0 out of 12
Pollen Not available.
Air Quality Not available.
Flu Activity Not available.
METAR BGTL 030658Z AUTO 06002KT 9999 OVC050 01/00 A2973 RMK AO2 SLP052 T00141002 $

More Conditions Fewer Conditions

10-Day Weather Forecast

Almanac

Astronomy

Sep. 03, 2014 Rise Set
Actual Time 5:02 AM ADT 10:00 PM ADT
Civil Twilight 2:06 AM ADT 12:50 AM ADT
Nautical Twilight Sun does not rise Sun does not rise
Astronomical Twilight Sun does not rise Sun does not rise
Moon No Moon Rise No Moon Set
Length of Visible Light 22h 43m
Length of Day
16h 57m
Tomorrow will be 15m 32s shorter.
First Quarter, 59% of the Moon is Illuminated
Today
First Quarter
Sep 8
Full
Sep 15
Last Quarter
Sep 24
New
Oct 1
First Quarter

Yesterday's Extremes

Country Highs Country Lows

Community

WunderPhotos

Upload Photos

1,749,888 photos uploaded!

Nearby

Snow Depth

Not available.

Earthquake Activity

City Distance Mag. Time & Date
No recent earthquake activity has been reported nearby.
Minimum magnitude displayed is 2.5.

Coastal Water Temperatures

Place Temperature
No Stations Reporting

Nearby Weather Stations